sensor_id;sensor_type;location;lat;lon;timestamp;P1;durP1;ratioP1;P2;durP2;ratioP2
62633;SDS011;48704;50.534;6.442;2022-08-19T00:00:41;17.08;;;12.60;;
62633;SDS011;48704;50.534;6.442;2022-08-19T00:03:06;16.33;;;12.43;;
62633;SDS011;48704;50.534;6.442;2022-08-19T00:05:32;15.43;;;11.32;;
62633;SDS011;48704;50.534;6.442;2022-08-19T00:07:58;18.10;;;11.90;;
62633;SDS011;48704;50.534;6.442;2022-08-19T00:10:23;17.92;;;13.10;;
62633;SDS011;48704;50.534;6.442;2022-08-19T00:12:49;16.98;;;12.80;;
62633;SDS011;48704;50.534;6.442;2022-08-19T00:15:16;19.33;;;12.75;;
62633;SDS011;48704;50.534;6.442;2022-08-19T00:17:43;17.08;;;12.70;;
62633;SDS011;48704;50.534;6.442;2022-08-19T00:20:10;15.18;;;11.63;;
62633;SDS011;48704;50.534;6.442;2022-08-19T00:22:38;18.75;;;13.48;;
62633;SDS011;48704;50.534;6.442;2022-08-19T00:25:06;22.55;;;15.75;;
62633;SDS011;48704;50.534;6.442;2022-08-19T00:27:32;23.70;;;14.48;;
62633;SDS011;48704;50.534;6.442;2022-08-19T00:29:58;19.55;;;14.50;;
62633;SDS011;48704;50.534;6.442;2022-08-19T00:32:23;21.40;;;14.40;;
62633;SDS011;48704;50.534;6.442;2022-08-19T00:34:50;21.60;;;15.45;;
62633;SDS011;48704;50.534;6.442;2022-08-19T00:37:17;22.40;;;14.93;;
62633;SDS011;48704;50.534;6.442;2022-08-19T00:39:44;21.77;;;15.85;;
62633;SDS011;48704;50.534;6.442;2022-08-19T00:42:09;22.48;;;15.93;;
62633;SDS011;48704;50.534;6.442;2022-08-19T00:44:35;22.90;;;16.33;;
62633;SDS011;48704;50.534;6.442;2022-08-19T00:47:00;24.90;;;16.15;;
62633;SDS011;48704;50.534;6.442;2022-08-19T00:49:27;25.70;;;17.95;;
62633;SDS011;48704;50.534;6.442;2022-08-19T00:52:00;25.13;;;19.45;;
62633;SDS011;48704;50.534;6.442;2022-08-19T00:54:29;22.38;;;16.20;;
62633;SDS011;48704;50.534;6.442;2022-08-19T00:56:56;22.45;;;15.80;;
62633;SDS011;48704;50.534;6.442;2022-08-19T00:59:23;25.58;;;17.40;;
62633;SDS011;48704;50.534;6.442;2022-08-19T01:01:49;24.60;;;17.60;;
62633;SDS011;48704;50.534;6.442;2022-08-19T01:04:14;24.77;;;17.83;;
62633;SDS011;48704;50.534;6.442;2022-08-19T01:06:40;25.50;;;18.17;;
62633;SDS011;48704;50.534;6.442;2022-08-19T01:09:06;24.42;;;17.55;;
62633;SDS011;48704;50.534;6.442;2022-08-19T01:11:33;29.70;;;19.60;;
62633;SDS011;48704;50.534;6.442;2022-08-19T01:14:01;27.67;;;18.90;;
62633;SDS011;48704;50.534;6.442;2022-08-19T01:16:28;28.70;;;19.88;;
62633;SDS011;48704;50.534;6.442;2022-08-19T01:18:55;34.75;;;23.92;;
62633;SDS011;48704;50.534;6.442;2022-08-19T01:21:26;32.15;;;21.92;;
62633;SDS011;48704;50.534;6.442;2022-08-19T01:23:53;31.10;;;21.13;;
62633;SDS011;48704;50.534;6.442;2022-08-19T01:26:19;36.00;;;24.63;;
62633;SDS011;48704;50.534;6.442;2022-08-19T01:28:47;30.25;;;20.73;;
62633;SDS011;48704;50.534;6.442;2022-08-19T01:31:16;35.28;;;24.05;;
62633;SDS011;48704;50.534;6.442;2022-08-19T01:33:44;37.38;;;25.40;;
62633;SDS011;48704;50.534;6.442;2022-08-19T01:36:13;34.58;;;24.73;;
62633;SDS011;48704;50.534;6.442;2022-08-19T01:38:41;34.50;;;24.98;;
62633;SDS011;48704;50.534;6.442;2022-08-19T01:41:08;39.90;;;26.70;;
62633;SDS011;48704;50.534;6.442;2022-08-19T01:43:35;40.45;;;29.27;;
62633;SDS011;48704;50.534;6.442;2022-08-19T01:46:01;39.15;;;27.00;;
62633;SDS011;48704;50.534;6.442;2022-08-19T01:48:32;39.53;;;26.52;;
62633;SDS011;48704;50.534;6.442;2022-08-19T01:51:01;37.10;;;26.10;;
62633;SDS011;48704;50.534;6.442;2022-08-19T01:53:26;39.65;;;27.10;;
62633;SDS011;48704;50.534;6.442;2022-08-19T01:55:51;45.15;;;30.38;;
62633;SDS011;48704;50.534;6.442;2022-08-19T01:58:20;46.70;;;30.63;;
62633;SDS011;48704;50.534;6.442;2022-08-19T02:00:49;46.45;;;30.45;;
62633;SDS011;48704;50.534;6.442;2022-08-19T02:03:14;50.30;;;33.30;;
62633;SDS011;48704;50.534;6.442;2022-08-19T02:05:41;46.85;;;31.70;;
62633;SDS011;48704;50.534;6.442;2022-08-19T02:08:07;41.22;;;28.60;;
62633;SDS011;48704;50.534;6.442;2022-08-19T02:10:33;40.50;;;28.50;;
62633;SDS011;48704;50.534;6.442;2022-08-19T02:12:58;46.45;;;29.63;;
62633;SDS011;48704;50.534;6.442;2022-08-19T02:15:24;44.22;;;30.45;;
62633;SDS011;48704;50.534;6.442;2022-08-19T02:17:50;46.92;;;31.25;;
62633;SDS011;48704;50.534;6.442;2022-08-19T02:20:16;47.80;;;31.27;;
62633;SDS011;48704;50.534;6.442;2022-08-19T02:22:41;50.47;;;31.65;;
62633;SDS011;48704;50.534;6.442;2022-08-19T02:25:08;50.63;;;32.50;;
62633;SDS011;48704;50.534;6.442;2022-08-19T02:27:35;53.22;;;34.17;;
62633;SDS011;48704;50.534;6.442;2022-08-19T02:30:00;56.90;;;35.65;;
62633;SDS011;48704;50.534;6.442;2022-08-19T02:32:26;59.95;;;34.28;;
62633;SDS011;48704;50.534;6.442;2022-08-19T02:34:52;46.50;;;30.33;;
62633;SDS011;48704;50.534;6.442;2022-08-19T02:37:18;47.72;;;29.88;;
62633;SDS011;48704;50.534;6.442;2022-08-19T02:40:02;46.78;;;32.22;;
62633;SDS011;48704;50.534;6.442;2022-08-19T02:42:28;46.00;;;30.92;;
62633;SDS011;48704;50.534;6.442;2022-08-19T02:44:55;44.50;;;29.55;;
62633;SDS011;48704;50.534;6.442;2022-08-19T02:47:20;54.38;;;33.85;;
62633;SDS011;48704;50.534;6.442;2022-08-19T02:49:46;47.95;;;31.77;;
62633;SDS011;48704;50.534;6.442;2022-08-19T02:52:11;46.58;;;29.70;;
62633;SDS011;48704;50.534;6.442;2022-08-19T02:54:37;47.90;;;30.27;;
62633;SDS011;48704;50.534;6.442;2022-08-19T02:57:03;45.75;;;29.33;;
62633;SDS011;48704;50.534;6.442;2022-08-19T02:59:29;48.85;;;31.80;;
62633;SDS011;48704;50.534;6.442;2022-08-19T03:01:56;44.60;;;28.92;;
62633;SDS011;48704;50.534;6.442;2022-08-19T03:04:21;47.78;;;30.60;;
62633;SDS011;48704;50.534;6.442;2022-08-19T03:06:48;52.97;;;34.15;;
62633;SDS011;48704;50.534;6.442;2022-08-19T03:09:14;54.47;;;32.78;;
62633;SDS011;48704;50.534;6.442;2022-08-19T03:11:40;50.00;;;31.77;;
62633;SDS011;48704;50.534;6.442;2022-08-19T03:14:06;58.22;;;33.83;;
62633;SDS011;48704;50.534;6.442;2022-08-19T03:16:39;59.47;;;33.90;;
62633;SDS011;48704;50.534;6.442;2022-08-19T03:19:09;68.10;;;36.78;;
62633;SDS011;48704;50.534;6.442;2022-08-19T03:21:34;64.97;;;35.70;;
62633;SDS011;48704;50.534;6.442;2022-08-19T03:24:01;59.70;;;36.03;;
62633;SDS011;48704;50.534;6.442;2022-08-19T03:26:43;57.33;;;33.92;;
62633;SDS011;48704;50.534;6.442;2022-08-19T03:29:10;52.38;;;33.38;;
62633;SDS011;48704;50.534;6.442;2022-08-19T03:31:37;58.55;;;36.35;;
62633;SDS011;48704;50.534;6.442;2022-08-19T03:34:04;50.38;;;32.35;;
62633;SDS011;48704;50.534;6.442;2022-08-19T03:36:30;52.58;;;32.25;;
62633;SDS011;48704;50.534;6.442;2022-08-19T03:38:56;54.60;;;33.75;;
62633;SDS011;48704;50.534;6.442;2022-08-19T03:41:25;52.83;;;30.80;;
62633;SDS011;48704;50.534;6.442;2022-08-19T03:43:52;51.28;;;32.03;;
62633;SDS011;48704;50.534;6.442;2022-08-19T03:46:20;47.17;;;28.80;;
62633;SDS011;48704;50.534;6.442;2022-08-19T03:48:50;46.85;;;28.67;;
62633;SDS011;48704;50.534;6.442;2022-08-19T03:51:24;47.40;;;30.13;;
62633;SDS011;48704;50.534;6.442;2022-08-19T03:53:58;44.08;;;27.60;;
62633;SDS011;48704;50.534;6.442;2022-08-19T03:56:25;39.67;;;25.65;;
62633;SDS011;48704;50.534;6.442;2022-08-19T03:58:52;42.47;;;26.50;;
62633;SDS011;48704;50.534;6.442;2022-08-19T04:01:19;41.58;;;28.25;;
62633;SDS011;48704;50.534;6.442;2022-08-19T04:03:46;44.30;;;28.45;;
62633;SDS011;48704;50.534;6.442;2022-08-19T04:06:13;42.95;;;26.77;;
62633;SDS011;48704;50.534;6.442;2022-08-19T04:08:41;42.05;;;27.20;;
62633;SDS011;48704;50.534;6.442;2022-08-19T04:11:08;49.17;;;30.45;;
62633;SDS011;48704;50.534;6.442;2022-08-19T04:13:35;46.03;;;29.70;;
62633;SDS011;48704;50.534;6.442;2022-08-19T04:16:01;53.58;;;33.50;;
62633;SDS011;48704;50.534;6.442;2022-08-19T04:18:26;53.38;;;32.47;;
62633;SDS011;48704;50.534;6.442;2022-08-19T04:20:54;54.35;;;33.72;;
62633;SDS011;48704;50.534;6.442;2022-08-19T04:23:20;59.13;;;35.25;;
62633;SDS011;48704;50.534;6.442;2022-08-19T04:25:45;53.65;;;33.00;;
62633;SDS011;48704;50.534;6.442;2022-08-19T04:28:11;56.60;;;34.22;;
62633;SDS011;48704;50.534;6.442;2022-08-19T04:30:44;59.30;;;35.92;;
62633;SDS011;48704;50.534;6.442;2022-08-19T04:33:12;69.47;;;39.72;;
62633;SDS011;48704;50.534;6.442;2022-08-19T04:35:44;57.35;;;34.70;;
62633;SDS011;48704;50.534;6.442;2022-08-19T04:38:12;62.28;;;35.97;;
62633;SDS011;48704;50.534;6.442;2022-08-19T04:40:42;65.97;;;38.08;;
62633;SDS011;48704;50.534;6.442;2022-08-19T04:43:32;72.78;;;40.20;;
62633;SDS011;48704;50.534;6.442;2022-08-19T04:45:58;71.40;;;39.33;;
62633;SDS011;48704;50.534;6.442;2022-08-19T04:48:23;74.85;;;40.97;;
62633;SDS011;48704;50.534;6.442;2022-08-19T04:50:53;72.18;;;40.90;;
62633;SDS011;48704;50.534;6.442;2022-08-19T04:53:29;84.18;;;44.17;;
62633;SDS011;48704;50.534;6.442;2022-08-19T04:55:56;67.78;;;40.13;;
62633;SDS011;48704;50.534;6.442;2022-08-19T04:58:27;65.88;;;39.78;;
62633;SDS011;48704;50.534;6.442;2022-08-19T05:00:52;61.10;;;36.00;;
62633;SDS011;48704;50.534;6.442;2022-08-19T05:03:18;66.10;;;38.45;;
62633;SDS011;48704;50.534;6.442;2022-08-19T05:05:45;67.93;;;39.90;;
62633;SDS011;48704;50.534;6.442;2022-08-19T05:08:13;70.63;;;38.63;;
62633;SDS011;48704;50.534;6.442;2022-08-19T05:10:44;65.60;;;40.08;;
62633;SDS011;48704;50.534;6.442;2022-08-19T05:13:11;84.38;;;44.65;;
62633;SDS011;48704;50.534;6.442;2022-08-19T05:15:36;96.88;;;47.55;;
62633;SDS011;48704;50.534;6.442;2022-08-19T05:18:01;87.45;;;45.53;;
62633;SDS011;48704;50.534;6.442;2022-08-19T05:23:29;105.32;;;47.00;;
62633;SDS011;48704;50.534;6.442;2022-08-19T05:25:55;120.03;;;52.28;;
62633;SDS011;48704;50.534;6.442;2022-08-19T05:28:20;111.95;;;49.75;;
62633;SDS011;48704;50.534;6.442;2022-08-19T05:30:46;109.38;;;47.80;;
62633;SDS011;48704;50.534;6.442;2022-08-19T05:33:13;115.13;;;51.33;;
62633;SDS011;48704;50.534;6.442;2022-08-19T05:35:38;96.68;;;43.85;;
62633;SDS011;48704;50.534;6.442;2022-08-19T05:38:05;118.97;;;46.45;;
62633;SDS011;48704;50.534;6.442;2022-08-19T05:40:33;132.65;;;48.38;;
62633;SDS011;48704;50.534;6.442;2022-08-19T05:43:01;127.78;;;48.05;;
62633;SDS011;48704;50.534;6.442;2022-08-19T05:45:27;102.70;;;42.72;;
62633;SDS011;48704;50.534;6.442;2022-08-19T05:47:52;114.70;;;41.25;;
62633;SDS011;48704;50.534;6.442;2022-08-19T05:50:19;109.40;;;40.13;;
62633;SDS011;48704;50.534;6.442;2022-08-19T05:52:44;102.15;;;39.83;;
62633;SDS011;48704;50.534;6.442;2022-08-19T05:55:10;110.75;;;42.05;;
62633;SDS011;48704;50.534;6.442;2022-08-19T05:57:36;111.50;;;40.33;;
62633;SDS011;48704;50.534;6.442;2022-08-19T06:00:03;110.38;;;40.60;;
62633;SDS011;48704;50.534;6.442;2022-08-19T06:02:33;105.95;;;39.00;;
62633;SDS011;48704;50.534;6.442;2022-08-19T06:05:00;106.57;;;39.75;;
62633;SDS011;48704;50.534;6.442;2022-08-19T06:07:26;106.03;;;39.15;;
62633;SDS011;48704;50.534;6.442;2022-08-19T06:09:52;108.28;;;41.55;;
62633;SDS011;48704;50.534;6.442;2022-08-19T06:12:17;104.38;;;38.22;;
62633;SDS011;48704;50.534;6.442;2022-08-19T06:14:43;107.40;;;38.95;;
62633;SDS011;48704;50.534;6.442;2022-08-19T06:17:08;107.60;;;40.65;;
62633;SDS011;48704;50.534;6.442;2022-08-19T06:19:33;102.82;;;41.17;;
62633;SDS011;48704;50.534;6.442;2022-08-19T06:21:59;101.55;;;39.88;;
62633;SDS011;48704;50.534;6.442;2022-08-19T06:24:26;93.53;;;38.15;;
62633;SDS011;48704;50.534;6.442;2022-08-19T06:26:54;93.70;;;37.22;;
62633;SDS011;48704;50.534;6.442;2022-08-19T06:29:22;100.35;;;39.85;;
62633;SDS011;48704;50.534;6.442;2022-08-19T06:31:50;96.90;;;39.92;;
62633;SDS011;48704;50.534;6.442;2022-08-19T06:34:18;92.20;;;38.13;;
62633;SDS011;48704;50.534;6.442;2022-08-19T06:36:45;87.00;;;37.20;;
62633;SDS011;48704;50.534;6.442;2022-08-19T06:39:17;87.47;;;36.95;;
62633;SDS011;48704;50.534;6.442;2022-08-19T06:41:45;97.50;;;39.78;;
62633;SDS011;48704;50.534;6.442;2022-08-19T06:44:12;93.28;;;38.88;;
62633;SDS011;48704;50.534;6.442;2022-08-19T06:46:38;97.70;;;38.70;;
62633;SDS011;48704;50.534;6.442;2022-08-19T06:49:05;90.20;;;38.22;;
62633;SDS011;48704;50.534;6.442;2022-08-19T06:51:31;99.00;;;38.13;;
62633;SDS011;48704;50.534;6.442;2022-08-19T06:53:57;101.15;;;39.72;;
62633;SDS011;48704;50.534;6.442;2022-08-19T06:56:24;89.95;;;37.40;;
62633;SDS011;48704;50.534;6.442;2022-08-19T06:58:58;100.53;;;40.10;;
62633;SDS011;48704;50.534;6.442;2022-08-19T07:01:28;100.97;;;37.97;;
62633;SDS011;48704;50.534;6.442;2022-08-19T07:03:53;95.55;;;38.17;;
62633;SDS011;48704;50.534;6.442;2022-08-19T07:06:19;90.68;;;37.72;;
62633;SDS011;48704;50.534;6.442;2022-08-19T07:08:45;84.00;;;36.65;;
62633;SDS011;48704;50.534;6.442;2022-08-19T07:11:14;85.43;;;35.38;;
62633;SDS011;48704;50.534;6.442;2022-08-19T07:13:42;82.97;;;34.90;;
62633;SDS011;48704;50.534;6.442;2022-08-19T07:16:12;88.82;;;37.30;;
62633;SDS011;48704;50.534;6.442;2022-08-19T07:18:41;84.35;;;35.67;;
62633;SDS011;48704;50.534;6.442;2022-08-19T07:21:14;82.72;;;36.22;;
62633;SDS011;48704;50.534;6.442;2022-08-19T07:23:42;90.68;;;38.33;;
62633;SDS011;48704;50.534;6.442;2022-08-19T07:26:10;87.18;;;33.75;;
62633;SDS011;48704;50.534;6.442;2022-08-19T07:28:35;73.65;;;34.22;;
62633;SDS011;48704;50.534;6.442;2022-08-19T07:31:04;76.88;;;33.53;;
62633;SDS011;48704;50.534;6.442;2022-08-19T07:33:31;76.35;;;33.92;;
62633;SDS011;48704;50.534;6.442;2022-08-19T07:35:57;73.30;;;32.92;;
62633;SDS011;48704;50.534;6.442;2022-08-19T07:38:23;76.30;;;32.38;;
62633;SDS011;48704;50.534;6.442;2022-08-19T07:40:48;68.55;;;30.88;;
62633;SDS011;48704;50.534;6.442;2022-08-19T07:43:13;76.38;;;31.05;;
62633;SDS011;48704;50.534;6.442;2022-08-19T07:45:40;76.97;;;32.28;;
62633;SDS011;48704;50.534;6.442;2022-08-19T07:48:05;71.40;;;31.25;;
62633;SDS011;48704;50.534;6.442;2022-08-19T07:50:31;72.65;;;31.52;;
62633;SDS011;48704;50.534;6.442;2022-08-19T07:52:56;68.13;;;29.98;;
62633;SDS011;48704;50.534;6.442;2022-08-19T07:55:23;72.50;;;32.75;;
62633;SDS011;48704;50.534;6.442;2022-08-19T07:57:50;64.55;;;29.45;;
62633;SDS011;48704;50.534;6.442;2022-08-19T08:00:17;76.88;;;32.92;;
62633;SDS011;48704;50.534;6.442;2022-08-19T08:02:43;70.20;;;34.33;;
62633;SDS011;48704;50.534;6.442;2022-08-19T08:05:09;67.07;;;32.38;;
62633;SDS011;48704;50.534;6.442;2022-08-19T08:07:54;75.35;;;33.15;;
62633;SDS011;48704;50.534;6.442;2022-08-19T08:10:38;70.35;;;31.48;;
62633;SDS011;48704;50.534;6.442;2022-08-19T08:13:03;70.35;;;33.45;;
62633;SDS011;48704;50.534;6.442;2022-08-19T08:15:30;75.38;;;34.03;;
62633;SDS011;48704;50.534;6.442;2022-08-19T08:17:56;68.82;;;33.13;;
62633;SDS011;48704;50.534;6.442;2022-08-19T08:20:22;62.70;;;31.48;;
62633;SDS011;48704;50.534;6.442;2022-08-19T08:22:48;69.65;;;32.58;;
62633;SDS011;48704;50.534;6.442;2022-08-19T08:27:58;66.68;;;33.35;;
62633;SDS011;48704;50.534;6.442;2022-08-19T08:30:25;62.20;;;30.38;;
62633;SDS011;48704;50.534;6.442;2022-08-19T08:32:52;64.70;;;30.98;;
62633;SDS011;48704;50.534;6.442;2022-08-19T08:35:19;59.75;;;29.02;;
62633;SDS011;48704;50.534;6.442;2022-08-19T08:37:46;51.83;;;28.13;;
62633;SDS011;48704;50.534;6.442;2022-08-19T08:42:51;48.22;;;26.10;;
62633;SDS011;48704;50.534;6.442;2022-08-19T08:45:25;49.20;;;26.55;;
62633;SDS011;48704;50.534;6.442;2022-08-19T08:47:52;56.83;;;27.02;;
62633;SDS011;48704;50.534;6.442;2022-08-19T08:50:28;40.72;;;23.35;;
62633;SDS011;48704;50.534;6.442;2022-08-19T08:53:00;37.05;;;21.38;;
62633;SDS011;48704;50.534;6.442;2022-08-19T08:55:27;36.38;;;20.75;;
62633;SDS011;48704;50.534;6.442;2022-08-19T09:00:31;48.17;;;25.55;;
62633;SDS011;48704;50.534;6.442;2022-08-19T09:02:59;42.63;;;24.20;;
62633;SDS011;48704;50.534;6.442;2022-08-19T09:05:36;42.85;;;24.65;;
62633;SDS011;48704;50.534;6.442;2022-08-19T09:08:24;47.50;;;25.55;;
62633;SDS011;48704;50.534;6.442;2022-08-19T09:10:58;46.05;;;24.20;;
62633;SDS011;48704;50.534;6.442;2022-08-19T09:13:31;38.25;;;22.15;;
62633;SDS011;48704;50.534;6.442;2022-08-19T09:16:08;48.47;;;24.38;;
62633;SDS011;48704;50.534;6.442;2022-08-19T09:18:47;46.40;;;24.75;;
62633;SDS011;48704;50.534;6.442;2022-08-19T09:21:18;48.53;;;25.70;;
62633;SDS011;48704;50.534;6.442;2022-08-19T09:23:44;43.53;;;23.33;;
62633;SDS011;48704;50.534;6.442;2022-08-19T09:26:11;47.50;;;26.23;;
62633;SDS011;48704;50.534;6.442;2022-08-19T09:28:39;45.13;;;23.90;;
62633;SDS011;48704;50.534;6.442;2022-08-19T09:31:08;45.67;;;24.27;;
62633;SDS011;48704;50.534;6.442;2022-08-19T09:33:33;47.90;;;26.67;;
62633;SDS011;48704;50.534;6.442;2022-08-19T09:36:02;49.25;;;27.60;;
62633;SDS011;48704;50.534;6.442;2022-08-19T09:38:29;48.40;;;26.70;;
62633;SDS011;48704;50.534;6.442;2022-08-19T09:40:54;49.35;;;27.50;;
62633;SDS011;48704;50.534;6.442;2022-08-19T09:43:19;45.33;;;25.63;;
62633;SDS011;48704;50.534;6.442;2022-08-19T09:45:45;44.35;;;25.85;;
62633;SDS011;48704;50.534;6.442;2022-08-19T09:48:10;48.25;;;26.45;;
62633;SDS011;48704;50.534;6.442;2022-08-19T09:50:35;40.65;;;24.17;;
62633;SDS011;48704;50.534;6.442;2022-08-19T09:53:03;46.58;;;26.23;;
62633;SDS011;48704;50.534;6.442;2022-08-19T09:55:28;49.85;;;28.48;;
62633;SDS011;48704;50.534;6.442;2022-08-19T09:57:54;47.72;;;26.35;;
62633;SDS011;48704;50.534;6.442;2022-08-19T10:00:19;47.83;;;27.75;;
62633;SDS011;48704;50.534;6.442;2022-08-19T10:02:45;47.13;;;26.33;;
62633;SDS011;48704;50.534;6.442;2022-08-19T10:05:11;48.60;;;28.08;;
62633;SDS011;48704;50.534;6.442;2022-08-19T10:10:19;42.13;;;24.17;;
62633;SDS011;48704;50.534;6.442;2022-08-19T10:12:45;44.85;;;25.45;;
62633;SDS011;48704;50.534;6.442;2022-08-19T10:15:12;44.10;;;23.27;;
62633;SDS011;48704;50.534;6.442;2022-08-19T10:17:38;43.22;;;24.23;;
62633;SDS011;48704;50.534;6.442;2022-08-19T10:20:03;39.78;;;22.67;;
62633;SDS011;48704;50.534;6.442;2022-08-19T10:22:29;42.85;;;23.88;;
62633;SDS011;48704;50.534;6.442;2022-08-19T10:24:55;41.22;;;24.30;;
62633;SDS011;48704;50.534;6.442;2022-08-19T10:27:21;41.40;;;24.35;;
62633;SDS011;48704;50.534;6.442;2022-08-19T10:29:47;34.58;;;20.92;;
62633;SDS011;48704;50.534;6.442;2022-08-19T10:32:13;43.95;;;25.10;;
62633;SDS011;48704;50.534;6.442;2022-08-19T10:34:38;39.08;;;23.80;;
62633;SDS011;48704;50.534;6.442;2022-08-19T10:37:04;31.85;;;21.15;;
62633;SDS011;48704;50.534;6.442;2022-08-19T10:39:34;32.88;;;21.63;;
62633;SDS011;48704;50.534;6.442;2022-08-19T10:42:07;34.35;;;20.38;;
62633;SDS011;48704;50.534;6.442;2022-08-19T10:44:35;33.88;;;21.17;;
62633;SDS011;48704;50.534;6.442;2022-08-19T10:47:00;32.17;;;19.15;;
62633;SDS011;48704;50.534;6.442;2022-08-19T10:49:27;27.30;;;17.90;;
62633;SDS011;48704;50.534;6.442;2022-08-19T10:51:52;25.48;;;17.27;;
62633;SDS011;48704;50.534;6.442;2022-08-19T10:54:36;27.90;;;17.50;;
62633;SDS011;48704;50.534;6.442;2022-08-19T10:57:20;27.02;;;16.88;;
62633;SDS011;48704;50.534;6.442;2022-08-19T10:59:49;27.88;;;18.33;;
62633;SDS011;48704;50.534;6.442;2022-08-19T11:02:14;28.33;;;16.98;;
62633;SDS011;48704;50.534;6.442;2022-08-19T11:04:40;32.03;;;17.75;;
62633;SDS011;48704;50.534;6.442;2022-08-19T11:07:06;28.40;;;18.83;;
62633;SDS011;48704;50.534;6.442;2022-08-19T11:09:36;24.75;;;16.85;;
62633;SDS011;48704;50.534;6.442;2022-08-19T11:12:04;26.65;;;16.90;;
62633;SDS011;48704;50.534;6.442;2022-08-19T11:14:29;26.23;;;16.92;;
62633;SDS011;48704;50.534;6.442;2022-08-19T11:16:55;24.27;;;15.98;;
62633;SDS011;48704;50.534;6.442;2022-08-19T11:19:21;28.25;;;18.70;;
62633;SDS011;48704;50.534;6.442;2022-08-19T11:21:49;25.70;;;15.95;;
62633;SDS011;48704;50.534;6.442;2022-08-19T11:24:17;24.48;;;15.63;;
62633;SDS011;48704;50.534;6.442;2022-08-19T11:26:45;25.17;;;16.60;;
62633;SDS011;48704;50.534;6.442;2022-08-19T11:29:12;22.67;;;15.13;;
62633;SDS011;48704;50.534;6.442;2022-08-19T11:31:38;23.17;;;15.00;;
62633;SDS011;48704;50.534;6.442;2022-08-19T11:34:09;21.55;;;14.20;;
62633;SDS011;48704;50.534;6.442;2022-08-19T11:36:38;20.77;;;13.48;;
62633;SDS011;48704;50.534;6.442;2022-08-19T11:39:07;21.80;;;13.90;;
62633;SDS011;48704;50.534;6.442;2022-08-19T11:41:33;21.58;;;14.45;;
62633;SDS011;48704;50.534;6.442;2022-08-19T11:43:59;19.75;;;13.82;;
62633;SDS011;48704;50.534;6.442;2022-08-19T11:46:25;20.90;;;14.15;;
62633;SDS011;48704;50.534;6.442;2022-08-19T11:48:54;15.77;;;11.52;;
62633;SDS011;48704;50.534;6.442;2022-08-19T11:51:21;16.67;;;11.93;;
62633;SDS011;48704;50.534;6.442;2022-08-19T11:53:49;17.67;;;11.60;;
62633;SDS011;48704;50.534;6.442;2022-08-19T11:56:15;15.35;;;9.45;;
62633;SDS011;48704;50.534;6.442;2022-08-19T11:58:41;13.90;;;9.18;;
62633;SDS011;48704;50.534;6.442;2022-08-19T12:01:09;12.05;;;7.82;;
62633;SDS011;48704;50.534;6.442;2022-08-19T12:03:37;13.48;;;9.93;;
62633;SDS011;48704;50.534;6.442;2022-08-19T12:06:04;12.45;;;8.10;;
62633;SDS011;48704;50.534;6.442;2022-08-19T12:08:34;13.25;;;9.15;;
62633;SDS011;48704;50.534;6.442;2022-08-19T12:11:01;15.18;;;8.95;;
62633;SDS011;48704;50.534;6.442;2022-08-19T12:13:27;12.50;;;9.27;;
62633;SDS011;48704;50.534;6.442;2022-08-19T12:15:54;14.23;;;9.73;;
62633;SDS011;48704;50.534;6.442;2022-08-19T12:18:20;11.35;;;8.50;;
62633;SDS011;48704;50.534;6.442;2022-08-19T12:20:45;14.23;;;8.75;;
62633;SDS011;48704;50.534;6.442;2022-08-19T12:23:12;12.07;;;8.40;;
62633;SDS011;48704;50.534;6.442;2022-08-19T12:25:42;12.82;;;9.00;;
62633;SDS011;48704;50.534;6.442;2022-08-19T12:28:15;11.98;;;7.07;;
62633;SDS011;48704;50.534;6.442;2022-08-19T12:30:41;9.18;;;6.18;;
62633;SDS011;48704;50.534;6.442;2022-08-19T12:33:06;12.20;;;7.70;;
62633;SDS011;48704;50.534;6.442;2022-08-19T12:35:32;11.82;;;7.88;;
62633;SDS011;48704;50.534;6.442;2022-08-19T12:37:58;12.75;;;7.20;;
62633;SDS011;48704;50.534;6.442;2022-08-19T12:40:24;9.65;;;6.30;;
62633;SDS011;48704;50.534;6.442;2022-08-19T12:42:50;13.43;;;7.53;;
62633;SDS011;48704;50.534;6.442;2022-08-19T12:45:16;10.35;;;6.78;;
62633;SDS011;48704;50.534;6.442;2022-08-19T12:47:41;9.48;;;6.10;;
62633;SDS011;48704;50.534;6.442;2022-08-19T12:50:08;10.10;;;5.93;;
62633;SDS011;48704;50.534;6.442;2022-08-19T12:52:34;11.45;;;6.88;;
62633;SDS011;48704;50.534;6.442;2022-08-19T12:55:03;7.75;;;5.35;;
62633;SDS011;48704;50.534;6.442;2022-08-19T12:57:30;10.93;;;6.00;;
62633;SDS011;48704;50.534;6.442;2022-08-19T13:00:06;10.02;;;6.65;;
62633;SDS011;48704;50.534;6.442;2022-08-19T13:02:36;11.10;;;6.68;;
62633;SDS011;48704;50.534;6.442;2022-08-19T13:05:03;10.85;;;7.38;;
62633;SDS011;48704;50.534;6.442;2022-08-19T13:07:31;10.30;;;7.40;;
62633;SDS011;48704;50.534;6.442;2022-08-19T13:09:56;10.82;;;7.35;;
62633;SDS011;48704;50.534;6.442;2022-08-19T13:12:22;13.65;;;8.55;;
62633;SDS011;48704;50.534;6.442;2022-08-19T13:14:51;12.13;;;8.15;;
62633;SDS011;48704;50.534;6.442;2022-08-19T13:17:18;12.70;;;7.60;;
62633;SDS011;48704;50.534;6.442;2022-08-19T13:19:44;15.60;;;8.50;;
62633;SDS011;48704;50.534;6.442;2022-08-19T13:22:09;11.07;;;7.28;;
62633;SDS011;48704;50.534;6.442;2022-08-19T13:24:35;10.95;;;7.55;;
62633;SDS011;48704;50.534;6.442;2022-08-19T13:27:01;11.75;;;6.30;;
62633;SDS011;48704;50.534;6.442;2022-08-19T13:29:27;10.88;;;6.40;;
62633;SDS011;48704;50.534;6.442;2022-08-19T13:32:11;10.85;;;6.90;;
62633;SDS011;48704;50.534;6.442;2022-08-19T13:34:55;10.60;;;6.88;;
62633;SDS011;48704;50.534;6.442;2022-08-19T13:37:20;9.23;;;6.28;;
62633;SDS011;48704;50.534;6.442;2022-08-19T13:40:06;9.05;;;5.90;;
62633;SDS011;48704;50.534;6.442;2022-08-19T13:42:53;8.80;;;5.75;;
62633;SDS011;48704;50.534;6.442;2022-08-19T13:45:20;9.05;;;5.13;;
62633;SDS011;48704;50.534;6.442;2022-08-19T13:47:48;9.35;;;4.85;;
62633;SDS011;48704;50.534;6.442;2022-08-19T13:50:15;8.30;;;5.78;;
62633;SDS011;48704;50.534;6.442;2022-08-19T13:52:43;8.10;;;4.72;;
62633;SDS011;48704;50.534;6.442;2022-08-19T13:55:09;6.97;;;3.95;;
62633;SDS011;48704;50.534;6.442;2022-08-19T13:57:36;6.28;;;3.78;;
62633;SDS011;48704;50.534;6.442;2022-08-19T14:00:04;6.88;;;3.65;;
62633;SDS011;48704;50.534;6.442;2022-08-19T14:02:32;6.13;;;3.80;;
62633;SDS011;48704;50.534;6.442;2022-08-19T14:04:58;7.78;;;4.18;;
62633;SDS011;48704;50.534;6.442;2022-08-19T14:07:23;5.13;;;3.50;;
62633;SDS011;48704;50.534;6.442;2022-08-19T14:09:49;5.65;;;4.13;;
62633;SDS011;48704;50.534;6.442;2022-08-19T14:12:18;6.20;;;4.15;;
62633;SDS011;48704;50.534;6.442;2022-08-19T14:14:44;5.25;;;3.75;;
62633;SDS011;48704;50.534;6.442;2022-08-19T14:17:09;5.88;;;4.03;;
62633;SDS011;48704;50.534;6.442;2022-08-19T14:19:34;7.43;;;3.92;;
62633;SDS011;48704;50.534;6.442;2022-08-19T14:22:00;4.80;;;2.80;;
62633;SDS011;48704;50.534;6.442;2022-08-19T14:24:25;9.32;;;3.50;;
62633;SDS011;48704;50.534;6.442;2022-08-19T14:26:51;5.40;;;3.25;;
62633;SDS011;48704;50.534;6.442;2022-08-19T14:29:16;7.03;;;3.35;;
62633;SDS011;48704;50.534;6.442;2022-08-19T14:31:42;5.15;;;3.60;;
62633;SDS011;48704;50.534;6.442;2022-08-19T14:34:09;5.75;;;4.05;;
62633;SDS011;48704;50.534;6.442;2022-08-19T14:36:35;7.97;;;3.95;;
62633;SDS011;48704;50.534;6.442;2022-08-19T14:39:02;5.82;;;2.85;;